ADDS METAR Data INFO
IDs: Format: Raw Decoded Include TAF

Data at: 0242 UTC 22 Jul 2017

KPNS 220232Z 32004KT 10SM VCTS CLR 29/24 A3003 RMK AO2 LTG DSNT S AND SW T02940239

KPNS 212345Z 2200/2224 23006KT P6SM SCT021 BKN250
  FM220200 VRB03KT P6SM FEW050 BKN250
  FM221200 19009KT P6SM VCTS SCT020CB BKN250
  PROB30 2212/2218 3SM TSRA BKN020CB